Time;durP1;ratioP1;P1;durP2;ratioP2;P2;SDS_P1;SDS_P2;PMS_P1;PMS_P2;Temp;Humidity;BMP_temperature;BMP_pressure;BME280_temperature;BME280_humidity;BME280_pressure;Samples;Min_cycle;Max_cycle;Signal;HPM_P1;HPM_P2
2021/03/19 00:01:18;;;;;;;9.18;4.28;;;7.90;70.10;;;;;;5063545;28;20125;-64
2021/03/19 00:03:44;;;;;;;10.07;4.60;;;7.80;70.50;;;;;;5050125;28;20117;-64
2021/03/19 00:06:09;;;;;;;12.05;4.70;;;7.80;70.60;;;;;;5043640;28;20082;-63
2021/03/19 00:08:35;;;;;;;6.93;3.60;;;7.90;70.20;;;;;;5056586;28;20138;-64
2021/03/19 00:11:01;;;;;;;7.88;4.40;;;7.80;70.70;;;;;;5052373;28;20040;-63
2021/03/19 00:13:27;;;;;;;9.02;4.30;;;7.80;70.50;;;;;;5047422;28;20033;-64
2021/03/19 00:15:52;;;;;;;7.88;4.10;;;7.90;69.90;;;;;;5045361;28;20029;-64
2021/03/19 00:18:18;;;;;;;7.85;4.55;;;7.90;69.80;;;;;;5048457;28;20179;-64
2021/03/19 00:20:46;;;;;;;6.43;3.85;;;7.90;69.70;;;;;;5052759;28;20540;-64
2021/03/19 00:23:13;;;;;;;7.03;4.10;;;7.90;69.60;;;;;;5050249;28;20056;-64
2021/03/19 00:25:42;;;;;;;6.78;3.97;;;7.80;69.70;;;;;;5048864;28;20048;-64
2021/03/19 00:28:13;;;;;;;8.45;4.85;;;7.70;70.20;;;;;;5045164;28;20036;-64
2021/03/19 00:30:39;;;;;;;10.68;4.55;;;7.60;70.30;;;;;;5045685;28;20111;-64
2021/03/19 00:33:05;;;;;;;10.32;5.13;;;7.60;70.00;;;;;;5053907;28;20024;-64
2021/03/19 00:35:31;;;;;;;8.32;4.22;;;7.50;70.20;;;;;;5034853;28;20333;-64
2021/03/19 00:37:57;;;;;;;7.25;4.00;;;7.40;70.70;;;;;;5050266;28;20044;-64
2021/03/19 00:40:23;;;;;;;7.90;4.40;;;7.40;70.30;;;;;;5060540;28;20033;-64
2021/03/19 00:42:49;;;;;;;8.55;4.50;;;7.40;70.90;;;;;;5045120;28;20396;-64
2021/03/19 00:45:16;;;;;;;8.88;4.78;;;7.40;70.50;;;;;;5063335;28;20029;-64
2021/03/19 00:47:42;;;;;;;8.93;5.00;;;7.40;70.30;;;;;;5048112;28;20033;-64
2021/03/19 00:50:12;;;;;;;9.25;4.97;;;7.30;70.80;;;;;;5049370;28;20183;-64
2021/03/19 00:52:38;;;;;;;10.45;5.32;;;7.30;70.90;;;;;;5046143;28;20029;-64
2021/03/19 00:55:07;;;;;;;8.48;4.45;;;7.20;70.90;;;;;;5060049;28;20029;-64
2021/03/19 00:57:33;;;;;;;8.82;4.43;;;7.20;70.60;;;;;;5045261;28;20033;-64
2021/03/19 00:59:59;;;;;;;8.10;5.30;;;7.20;70.80;;;;;;5058816;28;20029;-64
2021/03/19 01:02:24;;;;;;;9.10;5.22;;;7.20;71.30;;;;;;5051723;28;20060;-64
2021/03/19 01:04:51;;;;;;;10.98;5.18;;;7.30;70.70;;;;;;5040605;28;20483;-64
2021/03/19 01:07:16;;;;;;;10.85;5.07;;;7.20;70.60;;;;;;5053292;28;20474;-64
2021/03/19 01:09:42;;;;;;;7.53;4.38;;;7.20;71.10;;;;;;5038947;28;20031;-64
2021/03/19 01:12:08;;;;;;;9.10;4.60;;;7.20;71.10;;;;;;5047122;28;20468;-64
2021/03/19 01:14:33;;;;;;;9.43;5.15;;;7.20;70.70;;;;;;5055290;28;20040;-63
2021/03/19 01:16:59;;;;;;;11.73;6.03;;;7.20;71.20;;;;;;5060512;28;20029;-64
2021/03/19 01:19:25;;;;;;;9.75;5.53;;;7.10;71.20;;;;;;5052164;28;20483;-63
2021/03/19 01:21:50;;;;;;;8.93;5.32;;;7.10;71.60;;;;;;5040680;28;20042;-63
2021/03/19 01:24:16;;;;;;;9.77;5.70;;;7.00;71.70;;;;;;5049139;28;20057;-63
2021/03/19 01:26:41;;;;;;;8.40;5.30;;;7.00;71.10;;;;;;5071486;28;20059;-64
2021/03/19 01:29:07;;;;;;;9.03;5.00;;;7.00;71.00;;;;;;5057494;28;20036;-63
2021/03/19 01:31:33;;;;;;;9.85;5.55;;;7.00;70.80;;;;;;5042446;28;20041;-63
2021/03/19 01:33:59;;;;;;;9.07;5.45;;;7.10;70.90;;;;;;5045041;28;20037;-63
2021/03/19 01:36:24;;;;;;;10.15;6.00;;;7.00;70.90;;;;;;5061010;28;20435;-64
2021/03/19 01:38:50;;;;;;;8.43;5.07;;;7.00;71.00;;;;;;5054366;28;20066;-64
2021/03/19 01:41:16;;;;;;;10.63;6.20;;;7.00;71.50;;;;;;5052960;28;20033;-63
2021/03/19 01:43:41;;;;;;;11.80;6.80;;;7.00;71.50;;;;;;5069257;28;20549;-64
2021/03/19 01:46:44;;;;;;;14.68;6.70;;;7.00;71.50;;;;;;5049102;28;20159;-64
2021/03/19 01:49:47;;;;;;;10.68;6.10;;;6.90;71.60;;;;;;5045770;28;20037;-64
2021/03/19 01:52:50;;;;;;;11.82;6.50;;;6.90;71.80;;;;;;5050134;28;20094;-64
2021/03/19 01:55:53;;;;;;;9.18;5.90;;;6.80;71.80;;;;;;5050745;28;20041;-64
2021/03/19 01:58:56;;;;;;;12.32;6.72;;;6.80;72.00;;;;;;5044469;28;20121;-63
2021/03/19 02:01:59;;;;;;;11.48;5.70;;;6.60;72.30;;;;;;5051219;28;20135;-64
2021/03/19 02:05:02;;;;;;;13.60;6.67;;;6.50;72.90;;;;;;5047418;28;20033;-64
2021/03/19 02:08:06;;;;;;;10.77;7.18;;;6.50;73.00;;;;;;5046256;28;20116;-64
2021/03/19 02:11:08;;;;;;;9.13;5.80;;;6.50;73.20;;;;;;5050646;28;20037;-64
2021/03/19 02:14:11;;;;;;;10.63;6.13;;;6.40;73.10;;;;;;5045283;28;20243;-64
2021/03/19 02:17:15;;;;;;;11.33;6.70;;;6.50;72.50;;;;;;5046152;28;20486;-64
2021/03/19 02:20:18;;;;;;;14.00;7.00;;;6.50;72.30;;;;;;5045019;28;20025;-64
2021/03/19 02:23:21;;;;;;;11.30;6.67;;;6.40;72.80;;;;;;5042190;28;20371;-64
2021/03/19 02:26:24;;;;;;;11.63;6.27;;;6.60;72.00;;;;;;5050730;28;20056;-64
2021/03/19 02:29:27;;;;;;;13.37;7.20;;;6.50;72.20;;;;;;5046545;28;20035;-64
2021/03/19 02:32:12;;;;;;;12.83;6.43;;;6.50;72.30;;;;;;5047489;28;20025;-64
2021/03/19 02:34:46;;;;;;;12.83;6.83;;;6.40;72.70;;;;;;5052805;28;20538;-64
2021/03/19 02:37:15;;;;;;;10.83;6.03;;;6.40;72.90;;;;;;5045779;28;20029;-64
2021/03/19 02:39:41;;;;;;;11.70;6.67;;;6.40;72.80;;;;;;5051226;28;20021;-64
2021/03/19 02:42:09;;;;;;;10.00;5.83;;;6.40;72.80;;;;;;5066876;28;20367;-64
2021/03/19 02:44:35;;;;;;;11.03;6.90;;;6.40;72.70;;;;;;5064637;28;20040;-64
2021/03/19 02:47:01;;;;;;;11.20;5.90;;;6.40;72.60;;;;;;5042696;28;20057;-64
2021/03/19 02:49:28;;;;;;;12.43;6.22;;;6.40;72.70;;;;;;5035224;28;20061;-64
2021/03/19 02:51:55;;;;;;;11.77;6.50;;;6.40;72.10;;;;;;5044951;28;20032;-64
2021/03/19 02:54:22;;;;;;;11.07;6.03;;;6.30;72.60;;;;;;5044585;28;20040;-64
2021/03/19 02:56:48;;;;;;;14.93;7.07;;;6.30;72.50;;;;;;5051649;28;20116;-64
2021/03/19 02:59:13;;;;;;;10.77;7.10;;;6.20;72.80;;;;;;5066709;28;20116;-64
2021/03/19 03:01:39;;;;;;;13.67;7.90;;;6.20;72.80;;;;;;5050259;28;20047;-65
2021/03/19 03:04:05;;;;;;;12.70;7.43;;;6.20;72.80;;;;;;5045780;28;20448;-64
2021/03/19 03:06:42;;;;;;;11.37;6.57;;;6.20;72.80;;;;;;5048990;28;20025;-64
2021/03/19 03:09:23;;;;;;;14.00;6.40;;;6.10;73.00;;;;;;5041873;28;20028;-64
2021/03/19 03:11:49;;;;;;;13.95;6.10;;;6.00;73.20;;;;;;5041488;28;20047;-65
2021/03/19 03:14:18;;;;;;;13.07;7.23;;;6.10;72.80;;;;;;5048751;28;20033;-64
2021/03/19 03:16:45;;;;;;;12.63;5.93;;;6.00;73.30;;;;;;5041574;28;20311;-64
2021/03/19 03:19:13;;;;;;;12.40;6.67;;;6.00;72.80;;;;;;5047924;28;20487;-64
2021/03/19 03:21:39;;;;;;;12.83;7.43;;;5.90;72.90;;;;;;5043752;28;20431;-64
2021/03/19 03:24:06;;;;;;;11.50;6.57;;;5.90;73.40;;;;;;5049780;28;20032;-64
2021/03/19 03:26:33;;;;;;;11.60;6.50;;;5.90;73.40;;;;;;5046214;28;20030;-64
2021/03/19 03:28:59;;;;;;;14.30;5.90;;;5.90;73.50;;;;;;5037234;28;20483;-64
2021/03/19 03:31:25;;;;;;;11.97;6.10;;;5.90;73.30;;;;;;5050037;28;20029;-64
2021/03/19 03:33:50;;;;;;;12.20;6.10;;;5.90;73.10;;;;;;5050277;28;20037;-64
2021/03/19 03:36:17;;;;;;;11.67;6.57;;;5.90;72.40;;;;;;5054599;28;20037;-64
2021/03/19 03:38:42;;;;;;;16.63;7.33;;;5.90;72.60;;;;;;5050463;28;20028;-64
2021/03/19 03:41:16;;;;;;;11.20;6.60;;;5.80;73.10;;;;;;5040108;28;20036;-64
2021/03/19 03:43:42;;;;;;;11.45;5.97;;;5.80;73.20;;;;;;5048531;28;20021;-64
2021/03/19 03:46:13;;;;;;;12.47;6.97;;;5.90;72.50;;;;;;5050297;28;20745;-64
2021/03/19 03:48:39;;;;;;;11.03;5.53;;;5.80;72.60;;;;;;5046993;28;20025;-64
2021/03/19 03:51:07;;;;;;;13.73;6.53;;;5.70;72.80;;;;;;5032718;28;20091;-64
2021/03/19 03:53:38;;;;;;;11.63;6.27;;;5.80;72.80;;;;;;5059166;28;20029;-64
2021/03/19 03:56:04;;;;;;;12.27;6.87;;;5.70;73.20;;;;;;5043967;28;20040;-64
2021/03/19 03:58:30;;;;;;;12.90;7.10;;;5.70;73.20;;;;;;5043505;28;20033;-64
2021/03/19 04:00:56;;;;;;;11.53;5.47;;;5.60;72.90;;;;;;5054315;28;20360;-64
2021/03/19 04:03:22;;;;;;;10.37;5.90;;;5.60;73.40;;;;;;5049591;28;20155;-64
2021/03/19 04:05:49;;;;;;;13.63;6.10;;;5.60;73.20;;;;;;5045344;28;20127;-64
2021/03/19 04:08:19;;;;;;;13.70;6.53;;;5.70;73.20;;;;;;5056293;28;20131;-64
2021/03/19 04:10:46;;;;;;;11.93;5.70;;;5.60;72.80;;;;;;5061499;28;20459;-64
2021/03/19 04:13:12;;;;;;;12.10;7.47;;;5.60;72.80;;;;;;5049732;28;20059;-64
2021/03/19 04:15:40;;;;;;;11.93;6.23;;;5.60;73.40;;;;;;5046993;28;20037;-64
2021/03/19 04:18:09;;;;;;;10.57;5.80;;;5.50;73.20;;;;;;5040786;28;20094;-64
2021/03/19 04:20:35;;;;;;;13.20;7.10;;;5.60;73.20;;;;;;5049430;28;20071;-64
2021/03/19 04:23:01;;;;;;;12.23;6.07;;;5.50;73.20;;;;;;5050222;28;20060;-64
2021/03/19 04:25:27;;;;;;;10.23;5.40;;;5.50;73.20;;;;;;5057419;28;20056;-64
2021/03/19 04:27:56;;;;;;;11.60;5.53;;;5.50;73.50;;;;;;5060505;28;20036;-64
2021/03/19 04:30:30;;;;;;;11.97;6.27;;;5.40;73.40;;;;;;5049770;28;20550;-64
2021/03/19 04:32:57;;;;;;;;;;;5.50;73.30;;;;;;5051855;28;20028;-64
2021/03/19 04:35:24;;;;;;;12.33;5.67;;;5.60;73.10;;;;;;5049960;28;20113;-64
2021/03/19 04:37:51;;;;;;;9.67;6.17;;;5.60;72.60;;;;;;5049502;28;20032;-64
2021/03/19 04:40:17;;;;;;;14.00;6.47;;;5.60;72.00;;;;;;5062199;28;20025;-64
2021/03/19 04:42:43;;;;;;;11.83;6.23;;;5.50;71.90;;;;;;5062131;28;20094;-64
2021/03/19 04:45:11;;;;;;;10.03;5.33;;;5.50;72.40;;;;;;5055002;28;20037;-65
2021/03/19 04:47:37;;;;;;;13.70;6.17;;;5.50;72.50;;;;;;5044086;28;20032;-64
2021/03/19 04:50:06;;;;;;;13.47;5.70;;;5.40;72.60;;;;;;5050016;28;20044;-64
2021/03/19 04:52:32;;;;;;;9.53;5.57;;;5.30;72.50;;;;;;5048774;28;20048;-64
2021/03/19 04:55:00;;;;;;;10.67;5.47;;;5.30;73.10;;;;;;5047239;28;20037;-64
2021/03/19 04:57:26;;;;;;;11.57;5.73;;;5.20;73.20;;;;;;5070092;28;20491;-64
2021/03/19 04:59:52;;;;;;;10.10;5.57;;;5.20;72.90;;;;;;5043621;28;20060;-64
2021/03/19 05:02:28;;;;;;;10.13;5.40;;;5.20;73.40;;;;;;5041285;28;20061;-64
2021/03/19 05:04:54;;;;;;;11.50;4.93;;;5.20;73.10;;;;;;5049815;28;20025;-65
2021/03/19 05:07:20;;;;;;;11.33;6.30;;;5.10;73.20;;;;;;5064418;28;20105;-64
2021/03/19 05:09:45;;;;;;;10.20;5.90;;;5.10;73.70;;;;;;5056301;28;20151;-64
2021/03/19 05:12:13;;;;;;;11.40;6.10;;;5.10;73.50;;;;;;5048867;28;20044;-64
2021/03/19 05:14:38;;;;;;;11.73;5.20;;;5.00;73.50;;;;;;5049386;28;20041;-64
2021/03/19 05:17:04;;;;;;;12.00;5.40;;;5.10;74.10;;;;;;5048864;28;20124;-65
2021/03/19 05:19:30;;;;;;;14.60;6.37;;;4.90;73.60;;;;;;5054988;28;20405;-64
2021/03/19 05:21:55;;;;;;;10.87;5.37;;;5.00;74.20;;;;;;5048767;28;20079;-64
2021/03/19 05:24:21;;;;;;;9.90;5.53;;;5.00;74.20;;;;;;5049053;28;20033;-64
2021/03/19 05:26:46;;;;;;;10.53;5.97;;;5.00;74.00;;;;;;5046755;28;20040;-64
2021/03/19 05:29:13;;;;;;;9.40;4.73;;;5.00;73.80;;;;;;5045358;28;20116;-64
2021/03/19 05:31:40;;;;;;;14.47;5.67;;;5.10;73.00;;;;;;5065153;28;20102;-64
2021/03/19 05:34:06;;;;;;;9.10;5.00;;;5.10;73.60;;;;;;5053275;28;20029;-64
2021/03/19 05:36:33;;;;;;;12.90;5.00;;;5.10;73.40;;;;;;5047737;28;20045;-64
2021/03/19 05:39:00;;;;;;;15.87;5.70;;;5.10;73.40;;;;;;5063417;28;20037;-64
2021/03/19 05:41:28;;;;;;;10.10;5.87;;;5.10;73.20;;;;;;5047751;28;20098;-64
2021/03/19 05:44:11;;;;;;;9.10;5.23;;;5.10;73.10;;;;;;5050999;28;20029;-64
2021/03/19 05:46:42;;;;;;;11.20;5.10;;;5.10;73.20;;;;;;5050293;28;20016;-64
2021/03/19 05:49:08;;;;;;;10.47;4.97;;;5.10;72.90;;;;;;5058162;28;20029;-64
2021/03/19 05:51:40;;;;;;;8.13;4.80;;;5.10;72.90;;;;;;5053607;28;20112;-64
2021/03/19 05:54:14;;;;;;;10.43;5.73;;;5.10;72.90;;;;;;5047652;28;20052;-64
2021/03/19 05:56:41;;;;;;;8.53;5.10;;;5.00;72.80;;;;;;5051032;28;20093;-64
2021/03/19 05:59:07;;;;;;;7.57;4.50;;;5.00;73.00;;;;;;5050343;28;20104;-64
2021/03/19 06:01:35;;;;;;;12.67;5.13;;;5.00;72.40;;;;;;5049611;28;20029;-65
2021/03/19 06:04:01;;;;;;;11.27;5.50;;;5.00;72.90;;;;;;5047740;28;20082;-65
2021/03/19 06:06:51;;;;;;;14.80;5.37;;;5.00;72.80;;;;;;5050791;28;20037;-63
2021/03/19 06:09:40;;;;;;;10.97;5.53;;;5.00;73.30;;;;;;5045902;28;20025;-64
2021/03/19 06:12:12;;;;;;;11.27;5.63;;;5.00;72.80;;;;;;5038919;28;20028;-64
2021/03/19 06:14:52;;;;;;;10.13;5.93;;;4.90;73.30;;;;;;5067088;28;20029;-64
2021/03/19 06:17:28;;;;;;;9.13;5.20;;;5.00;73.40;;;;;;5045531;28;20116;-64
2021/03/19 06:20:07;;;;;;;10.17;4.67;;;4.90;73.60;;;;;;5048457;28;20082;-64
2021/03/19 06:22:46;;;;;;;11.30;5.70;;;5.10;72.90;;;;;;5046148;28;20041;-64
2021/03/19 06:26:04;;;;;;;13.40;5.73;;;5.20;72.70;;;;;;5050705;28;20040;-64
2021/03/19 06:28:39;;;;;;;11.93;5.50;;;5.20;73.20;;;;;;5037177;28;20033;-64
2021/03/19 06:31:28;;;;;;;13.13;6.93;;;5.40;72.80;;;;;;5047946;28;20423;-64
2021/03/19 06:34:14;;;;;;;14.93;6.13;;;5.60;72.50;;;;;;5040195;28;20040;-64
2021/03/19 06:36:50;;;;;;;10.07;6.00;;;5.80;71.50;;;;;;5049029;28;20049;-64
2021/03/19 06:39:24;;;;;;;11.43;6.17;;;5.80;71.90;;;;;;5071562;28;20036;-64
2021/03/19 06:42:27;;;;;;;12.07;5.60;;;6.00;71.10;;;;;;5073716;28;20025;-64
2021/03/19 06:45:10;;;;;;;12.73;7.27;;;6.00;71.60;;;;;;5046770;28;20029;-63
2021/03/19 06:47:48;;;;;;;10.52;5.72;;;5.90;71.40;;;;;;5049945;28;20250;-63
2021/03/19 06:50:23;;;;;;;14.13;6.13;;;5.90;71.50;;;;;;5041064;28;20745;-63
2021/03/19 06:52:50;;;;;;;13.20;6.13;;;5.90;71.50;;;;;;5062812;28;20071;-63
2021/03/19 06:55:39;;;;;;;11.67;5.93;;;6.00;71.40;;;;;;5063518;28;20475;-64
2021/03/19 06:58:05;;;;;;;11.00;5.13;;;5.90;71.50;;;;;;5047062;28;20021;-63
2021/03/19 07:00:46;;;;;;;10.80;5.60;;;6.00;71.40;;;;;;5049922;28;20815;-63
2021/03/19 07:03:32;;;;;;;8.60;4.77;;;6.10;71.30;;;;;;5049111;28;20130;-63
2021/03/19 07:06:38;;;;;;;11.30;5.10;;;6.10;71.10;;;;;;5049860;28;20628;-63
2021/03/19 07:09:31;;;;;;;9.33;5.37;;;6.30;71.10;;;;;;5056577;28;20132;-64
2021/03/19 07:11:57;;;;;;;9.27;4.78;;;6.60;70.60;;;;;;5051903;28;20108;-63
2021/03/19 07:14:41;;;;;;;10.33;5.40;;;7.40;69.40;;;;;;5052860;28;20527;-64
2021/03/19 07:17:53;;;;;;;11.97;5.57;;;8.80;67.20;;;;;;5045911;28;20025;-64
2021/03/19 07:20:31;;;;;;;9.10;5.07;;;11.30;59.80;;;;;;5048260;28;20049;-63
2021/03/19 07:23:21;;;;;;;7.75;3.97;;;13.50;56.00;;;;;;5049813;28;20036;-63
2021/03/19 07:25:56;;;;;;;7.25;4.50;;;15.30;50.80;;;;;;5048391;28;20029;-63
2021/03/19 07:28:34;;;;;;;8.70;3.60;;;16.80;47.60;;;;;;5061942;28;20022;-64
2021/03/19 07:31:28;;;;;;;7.20;3.53;;;18.40;42.90;;;;;;5057052;28;20473;-64
2021/03/19 07:34:09;;;;;;;8.15;3.00;;;20.00;39.90;;;;;;5049265;28;20036;-62
2021/03/19 07:37:04;;;;;;;7.55;3.72;;;22.40;33.30;;;;;;5079472;28;20028;-62
2021/03/19 07:39:54;;;;;;;8.05;3.33;;;22.50;34.60;;;;;;5047200;28;20044;-62
2021/03/19 07:42:47;;;;;;;5.93;3.10;;;23.80;32.40;;;;;;5044886;28;20147;-62
2021/03/19 07:45:25;;;;;;;6.80;3.10;;;25.20;28.40;;;;;;5032806;28;20037;-63
2021/03/19 07:48:15;;;;;;;8.18;3.20;;;25.90;27.40;;;;;;5031037;28;20029;-63
2021/03/19 07:50:47;;;;;;;7.93;3.33;;;26.00;28.40;;;;;;5035287;28;20080;-63
2021/03/19 07:53:31;;;;;;;5.88;3.17;;;26.30;28.00;;;;;;5030156;28;20043;-63
2021/03/19 07:56:21;;;;;;;7.38;3.13;;;26.10;27.40;;;;;;5030270;28;20061;-63
2021/03/19 07:58:55;;;;;;;6.40;3.25;;;26.30;27.40;;;;;;5035885;28;20466;-63
2021/03/19 08:01:39;;;;;;;5.20;2.60;;;26.50;27.10;;;;;;5044862;28;20180;-63
2021/03/19 08:04:13;;;;;;;6.93;3.15;;;26.90;26.80;;;;;;5050211;28;20387;-63
2021/03/19 08:06:45;;;;;;;6.35;2.50;;;27.20;26.20;;;;;;5048299;28;20035;-63
2021/03/19 08:09:49;;;;;;;9.00;3.20;;;27.20;25.80;;;;;;5047503;28;20043;-62
2021/03/19 08:12:43;;;;;;;6.40;2.70;;;27.20;26.00;;;;;;5013631;28;20668;-68
2021/03/19 08:15:17;;;;;;;7.47;2.83;;;27.70;25.70;;;;;;4993931;28;20550;-67
2021/03/19 08:17:59;;;;;;;5.00;2.70;;;27.60;25.00;;;;;;5029284;28;20049;-67
2021/03/19 08:20:30;;;;;;;5.03;2.50;;;27.00;25.40;;;;;;5032196;28;20519;-68
2021/03/19 08:23:17;;;;;;;5.90;2.40;;;26.90;25.50;;;;;;5032092;28;20108;-70
2021/03/19 08:25:48;;;;;;;5.15;2.47;;;26.70;25.30;;;;;;5035064;28;20025;-68
2021/03/19 08:28:31;;;;;;;7.82;2.58;;;26.90;25.10;;;;;;5029192;28;20053;-67
2021/03/19 08:31:19;;;;;;;5.82;2.50;;;26.50;24.90;;;;;;5031152;28;20052;-68
2021/03/19 08:33:59;;;;;;;6.03;2.33;;;25.90;25.10;;;;;;5033961;28;20040;-68
2021/03/19 08:36:44;;;;;;;6.28;2.17;;;25.50;25.50;;;;;;5034036;28;20371;-67
2021/03/19 08:39:28;;;;;;;5.35;2.45;;;25.50;25.20;;;;;;5047175;28;20113;-67
2021/03/19 08:42:00;;;;;;;4.53;2.00;;;25.60;25.40;;;;;;5055323;28;20045;-67
2021/03/19 08:44:32;;;;;;;4.05;2.15;;;26.40;25.10;;;;;;5032674;28;20094;-68
2021/03/19 08:47:25;;;;;;;4.10;1.95;;;26.80;24.70;;;;;;5025549;28;20018;-69
2021/03/19 08:49:56;;;;;;;3.05;1.77;;;27.10;24.30;;;;;;5035692;28;20550;-70
2021/03/19 08:52:34;;;;;;;5.22;2.33;;;28.00;24.60;;;;;;5033842;28;20032;-64
2021/03/19 08:55:15;;;;;;;5.25;2.22;;;28.60;24.40;;;;;;5032183;28;20029;-68
2021/03/19 08:57:57;;;;;;;3.78;1.92;;;29.20;23.60;;;;;;5032663;28;20037;-67
2021/03/19 09:00:26;;;;;;;5.13;1.93;;;29.60;23.20;;;;;;5032898;28;20025;-68
2021/03/19 09:03:02;;;;;;;4.43;2.05;;;30.00;23.20;;;;;;5032058;28;20122;-68
2021/03/19 09:05:37;;;;;;;4.47;1.75;;;30.60;22.90;;;;;;5049748;28;20211;-65
2021/03/19 09:08:21;;;;;;;4.65;2.30;;;31.20;22.70;;;;;;5028705;28;20029;-67
2021/03/19 09:10:55;;;;;;;4.50;2.00;;;31.70;22.20;;;;;;5033099;28;20044;-67
2021/03/19 09:13:23;;;;;;;4.88;2.28;;;31.90;22.10;;;;;;5031375;28;20033;-68
2021/03/19 09:15:52;;;;;;;6.03;2.22;;;31.80;21.90;;;;;;5036501;28;20040;-66
2021/03/19 09:18:40;;;;;;;7.78;2.22;;;31.30;21.80;;;;;;5035655;28;20120;-67
2021/03/19 09:21:25;;;;;;;5.45;2.53;;;30.50;22.10;;;;;;5033510;28;20040;-68
2021/03/19 09:24:00;;;;;;;6.10;2.70;;;30.00;22.70;;;;;;5039785;28;20048;-67
2021/03/19 09:26:35;;;;;;;6.40;2.53;;;30.40;23.50;;;;;;5037598;28;20029;-68
2021/03/19 09:29:22;;;;;;;5.55;2.50;;;30.70;22.40;;;;;;5031008;28;20450;-68
2021/03/19 09:31:53;;;;;;;7.28;2.83;;;30.40;22.40;;;;;;5051949;28;20052;-70
2021/03/19 09:34:42;;;;;;;5.30;2.60;;;28.30;22.90;;;;;;5037757;28;20051;-70
2021/03/19 09:37:30;;;;;;;4.85;2.50;;;26.80;24.10;;;;;;5039804;28;20080;-66
2021/03/19 09:39:59;;;;;;;5.88;3.15;;;25.40;25.20;;;;;;5049544;28;20031;-66
2021/03/19 09:42:24;;;;;;;7.22;3.03;;;24.60;25.90;;;;;;5051046;28;21425;-66
2021/03/19 09:44:52;;;;;;;4.85;2.65;;;23.90;26.00;;;;;;5048227;28;20160;-65
2021/03/19 09:47:21;;;;;;;5.43;2.53;;;23.60;26.60;;;;;;5050242;28;20033;-66
2021/03/19 09:49:46;;;;;;;6.25;2.85;;;23.10;26.80;;;;;;5048932;28;20761;-65
2021/03/19 09:52:18;;;;;;;6.32;2.60;;;22.80;27.20;;;;;;5050655;28;20045;-65
2021/03/19 09:54:45;;;;;;;5.63;2.67;;;22.60;27.60;;;;;;5051629;28;20055;-66
2021/03/19 09:57:30;;;;;;;6.13;2.65;;;22.40;26.80;;;;;;5051916;28;20052;-65
2021/03/19 10:00:16;;;;;;;5.35;2.67;;;21.60;27.10;;;;;;5049391;28;20391;-64
2021/03/19 10:02:42;;;;;;;7.53;2.85;;;21.40;27.90;;;;;;5049059;28;20041;-66
2021/03/19 10:05:23;;;;;;;5.68;2.50;;;21.70;26.60;;;;;;5048081;28;20412;-66
2021/03/19 10:07:50;;;;;;;7.72;3.47;;;21.70;27.00;;;;;;5051724;28;20037;-65
2021/03/19 10:10:33;;;;;;;5.63;3.00;;;22.10;27.20;;;;;;5049954;28;20021;-66
2021/03/19 10:13:16;;;;;;;5.90;2.90;;;22.10;27.70;;;;;;5040709;28;20039;-67
2021/03/19 10:15:44;;;;;;;6.70;2.70;;;22.80;27.20;;;;;;5033109;28;20033;-68
2021/03/19 10:18:34;;;;;;;6.65;3.40;;;23.20;25.80;;;;;;5047243;28;20033;-64
2021/03/19 10:21:12;;;;;;;6.90;3.30;;;23.00;25.90;;;;;;5045470;28;20103;-67
2021/03/19 10:23:39;;;;;;;7.40;3.67;;;23.20;26.10;;;;;;5037432;28;20044;-68
2021/03/19 10:26:07;;;;;;;8.07;3.67;;;22.60;26.60;;;;;;5056377;28;20479;-69
2021/03/19 10:28:33;;;;;;;7.38;3.42;;;22.50;27.90;;;;;;5031894;28;20135;-71
2021/03/19 10:31:08;;;;;;;6.30;3.10;;;24.10;27.20;;;;;;5055443;28;20818;-70
2021/03/19 10:33:58;;;;;;;9.48;3.60;;;25.70;25.60;;;;;;5055428;28;20029;-68
2021/03/19 10:36:37;;;;;;;6.88;3.15;;;26.90;24.70;;;;;;5037643;28;20094;-68
2021/03/19 10:39:37;;;;;;;6.03;3.00;;;28.00;24.40;;;;;;5047508;28;20035;-68
2021/03/19 10:42:19;;;;;;;7.53;3.30;;;26.90;23.30;;;;;;5053209;28;20061;-68
2021/03/19 10:45:06;;;;;;;6.47;2.97;;;25.90;24.80;;;;;;5048187;28;20032;-69
2021/03/19 10:47:38;;;;;;;7.25;3.25;;;26.10;24.70;;;;;;5033971;28;20088;-66
2021/03/19 10:50:14;;;;;;;7.88;3.50;;;27.20;24.00;;;;;;5033543;28;20033;-66
2021/03/19 10:52:47;;;;;;;6.95;3.28;;;28.00;23.50;;;;;;5031084;28;20033;-65
2021/03/19 10:55:20;;;;;;;7.30;3.65;;;28.70;23.50;;;;;;5053683;28;20110;-65
2021/03/19 10:57:45;;;;;;;7.43;2.85;;;29.80;23.10;;;;;;5035467;28;20059;-65
2021/03/19 11:00:32;;;;;;;7.07;3.00;;;30.20;22.10;;;;;;5035101;28;20045;-66
2021/03/19 11:03:00;;;;;;;6.90;3.05;;;29.60;21.80;;;;;;5048590;28;20106;-65
2021/03/19 11:05:26;;;;;;;6.75;3.38;;;29.00;22.30;;;;;;5052810;28;20037;-65
2021/03/19 11:07:52;;;;;;;5.20;2.70;;;28.80;22.70;;;;;;5030558;28;20340;-66
2021/03/19 11:10:20;;;;;;;6.22;3.47;;;29.10;22.70;;;;;;5035629;28;20104;-66
2021/03/19 11:13:18;;;;;;;6.82;3.13;;;29.00;22.70;;;;;;5046404;28;20035;-67
2021/03/19 11:15:53;;;;;;;5.25;2.75;;;28.80;23.40;;;;;;5034001;28;20033;-68
2021/03/19 11:18:33;;;;;;;5.80;2.58;;;29.50;22.80;;;;;;5041432;28;20033;-68
2021/03/19 11:21:18;;;;;;;6.22;2.80;;;29.60;22.00;;;;;;5035380;28;20040;-67
2021/03/19 11:24:01;;;;;;;5.03;2.20;;;29.70;22.30;;;;;;5031775;28;20467;-68
2021/03/19 11:26:30;;;;;;;4.93;2.72;;;29.70;21.90;;;;;;5050829;28;20143;-70
2021/03/19 11:29:08;;;;;;;4.82;2.63;;;29.10;21.50;;;;;;5032531;28;20483;-68
2021/03/19 11:31:34;;;;;;;5.03;2.63;;;29.10;22.30;;;;;;5036186;28;20068;-65
2021/03/19 11:34:17;;;;;;;4.80;2.10;;;29.90;22.60;;;;;;5035425;28;20033;-65
2021/03/19 11:36:57;;;;;;;;;;;30.50;22.40;;;;;;5032463;28;20156;-70
2021/03/19 11:39:34;;;;;;;5.68;2.53;;;30.70;21.90;;;;;;5032264;28;20011;-65
2021/03/19 11:42:00;;;;;;;5.93;2.72;;;30.60;21.30;;;;;;5037295;28;20064;-64
2021/03/19 11:44:26;;;;;;;3.70;1.75;;;30.80;22.00;;;;;;5035732;28;20119;-65
2021/03/19 11:46:51;;;;;;;4.97;2.03;;;30.20;22.30;;;;;;5028652;28;20522;-65
2021/03/19 11:49:17;;;;;;;4.05;2.30;;;29.50;22.60;;;;;;5033870;28;20469;-65
2021/03/19 11:51:43;;;;;;;4.18;2.15;;;28.30;22.70;;;;;;5036473;28;20077;-68
2021/03/19 11:54:09;;;;;;;5.22;2.40;;;26.70;22.80;;;;;;5034027;28;20904;-69
2021/03/19 11:56:37;;;;;;;4.53;2.15;;;25.10;23.90;;;;;;5054235;28;20037;-68
2021/03/19 11:59:04;;;;;;;4.50;2.38;;;23.90;25.10;;;;;;5032913;28;20033;-65
2021/03/19 12:01:31;;;;;;;4.18;2.30;;;22.60;25.50;;;;;;5044384;28;20043;-68
2021/03/19 12:03:58;;;;;;;3.63;1.88;;;21.30;26.90;;;;;;5030719;28;20084;-68
2021/03/19 12:06:27;;;;;;;4.32;1.95;;;20.40;27.20;;;;;;5043573;28;20025;-69
2021/03/19 12:08:53;;;;;;;4.50;2.13;;;19.50;26.20;;;;;;5029267;28;20037;-69
2021/03/19 12:11:35;;;;;;;5.65;1.73;;;18.50;27.30;;;;;;5035683;28;20036;-71
2021/03/19 12:14:03;;;;;;;3.83;1.70;;;17.60;28.00;;;;;;5034775;28;20044;-69
2021/03/19 12:16:29;;;;;;;3.22;1.70;;;17.40;28.40;;;;;;5028844;28;20388;-70
2021/03/19 12:18:56;;;;;;;4.72;2.15;;;17.20;28.40;;;;;;5048072;28;20029;-69
2021/03/19 12:21:22;;;;;;;4.60;2.13;;;17.00;28.80;;;;;;5033636;28;20075;-69
2021/03/19 12:23:48;;;;;;;6.38;2.58;;;16.80;29.20;;;;;;5034262;28;20033;-69
2021/03/19 12:26:14;;;;;;;4.45;2.05;;;16.70;31.40;;;;;;5037405;28;20025;-70
2021/03/19 12:28:40;;;;;;;4.82;2.05;;;16.60;31.80;;;;;;5029343;28;20431;-69
2021/03/19 12:31:07;;;;;;;2.95;1.67;;;16.40;32.40;;;;;;5031074;28;20042;-69
2021/03/19 12:33:35;;;;;;;6.15;2.22;;;16.10;30.80;;;;;;5028534;28;20036;-69
2021/03/19 12:36:03;;;;;;;4.93;2.10;;;15.90;30.20;;;;;;5030585;28;20025;-63
2021/03/19 12:38:29;;;;;;;4.28;2.15;;;15.60;30.30;;;;;;5031107;28;20535;-65
2021/03/19 12:40:58;;;;;;;4.15;1.88;;;15.30;30.80;;;;;;5038870;28;20112;-64
2021/03/19 12:43:24;;;;;;;4.50;1.88;;;15.10;31.70;;;;;;5053414;28;20033;-65
2021/03/19 12:45:50;;;;;;;4.53;1.80;;;15.10;32.60;;;;;;5036506;28;20087;-65
2021/03/19 12:48:16;;;;;;;4.22;2.10;;;14.90;31.80;;;;;;5047955;28;20033;-64
2021/03/19 12:50:41;;;;;;;5.45;1.90;;;14.90;33.10;;;;;;5060988;28;20057;-65
2021/03/19 12:53:12;;;;;;;3.42;1.83;;;14.90;33.40;;;;;;5070212;28;20032;-69
2021/03/19 12:55:38;;;;;;;3.28;1.65;;;14.90;32.70;;;;;;5026983;28;20064;-69
2021/03/19 12:58:03;;;;;;;2.75;1.50;;;14.90;31.70;;;;;;5028533;28;20068;-69
2021/03/19 13:00:34;;;;;;;3.20;1.80;;;15.00;32.20;;;;;;5031999;28;20045;-69
2021/03/19 13:02:59;;;;;;;2.63;1.30;;;14.40;32.60;;;;;;5027610;28;20184;-69
2021/03/19 13:05:27;;;;;;;2.97;1.63;;;15.50;32.10;;;;;;5045201;28;20082;-70
2021/03/19 13:07:54;;;;;;;2.65;1.42;;;15.70;31.00;;;;;;5023047;28;20028;-70
2021/03/19 13:10:21;;;;;;;5.10;1.40;;;15.70;31.00;;;;;;5033670;28;20029;-71
2021/03/19 13:12:47;;;;;;;3.10;1.33;;;15.70;32.00;;;;;;5032926;28;20040;-72
2021/03/19 13:15:17;;;;;;;2.97;1.65;;;15.70;30.90;;;;;;5045569;28;20045;-67
2021/03/19 13:17:44;;;;;;;4.75;1.45;;;15.60;30.00;;;;;;5035086;28;20053;-67
2021/03/19 13:20:11;;;;;;;3.00;1.50;;;15.50;30.40;;;;;;5034506;28;20087;-68
2021/03/19 13:22:39;;;;;;;4.05;1.63;;;15.40;30.90;;;;;;5037380;28;21801;-72